createdAt,value
2022-09-03T00:04:28.953Z,1.88
2022-09-03T00:09:35.490Z,1.70
2022-09-03T00:14:41.026Z,1.70
2022-09-03T00:19:48.762Z,1.90
2022-09-03T00:24:51.666Z,1.90
2022-09-03T00:29:56.569Z,2.10
2022-09-03T00:35:05.371Z,2.08
2022-09-03T00:40:15.198Z,2.03
2022-09-03T00:45:28.954Z,1.60
2022-09-03T00:50:42.585Z,2.13
2022-09-03T00:55:51.241Z,1.75
2022-09-03T01:00:53.969Z,2.00
2022-09-03T01:06:07.159Z,1.70
2022-09-03T01:11:20.001Z,1.70
2022-09-03T01:16:27.990Z,1.73
2022-09-03T01:21:47.027Z,2.10
2022-09-03T01:27:11.035Z,1.65
2022-09-03T01:32:18.403Z,1.80
2022-09-03T01:37:28.681Z,1.90
2022-09-03T01:42:43.891Z,1.90
2022-09-03T01:47:57.730Z,1.80
2022-09-03T01:53:04.977Z,1.98
2022-09-03T01:58:12.347Z,1.67
2022-09-03T02:03:17.470Z,1.58
2022-09-03T02:08:20.879Z,1.60
2022-09-03T02:13:25.742Z,1.85
2022-09-03T02:18:31.890Z,1.80
2022-09-03T02:23:34.815Z,1.70
2022-09-03T02:28:37.744Z,1.90
2022-09-03T02:33:45.546Z,1.70
2022-09-03T02:38:48.545Z,1.70
2022-09-03T02:43:55.076Z,1.60
2022-09-03T02:48:59.191Z,1.60
2022-09-03T02:54:01.991Z,1.90
2022-09-03T02:59:05.406Z,1.60
2022-09-03T03:04:09.593Z,1.50
2022-09-03T03:09:12.305Z,1.75
2022-09-03T03:14:15.345Z,1.88
2022-09-03T03:19:19.527Z,1.77
2022-09-03T03:24:22.247Z,1.60
2022-09-03T03:29:26.109Z,1.60
2022-09-03T03:34:30.180Z,1.88
2022-09-03T03:39:32.903Z,1.60
2022-09-03T03:44:35.644Z,1.75
2022-09-03T03:49:40.047Z,1.52
2022-09-03T03:54:42.737Z,1.80
2022-09-03T03:59:45.471Z,1.80
2022-09-03T04:04:49.509Z,1.83
2022-09-03T04:09:52.277Z,1.70
2022-09-03T04:14:54.983Z,1.60
2022-09-03T04:19:59.089Z,1.73
2022-09-03T04:25:02.187Z,1.80
2022-09-03T04:30:05.661Z,1.70
2022-09-03T04:35:10.330Z,1.60
2022-09-03T04:40:13.041Z,1.70
2022-09-03T04:45:19.529Z,1.88
2022-09-03T04:50:23.665Z,1.60
2022-09-03T04:55:35.944Z,1.75
2022-09-03T05:00:38.948Z,1.80
2022-09-03T05:05:43.018Z,2.10
2022-09-03T05:10:45.701Z,1.63
2022-09-03T05:15:48.358Z,1.90
2022-09-03T05:20:59.642Z,1.70
2022-09-03T05:26:03.678Z,2.00
2022-09-03T05:31:08.212Z,1.50
2022-09-03T05:36:13.996Z,1.70
2022-09-03T05:41:18.995Z,1.92
2022-09-03T05:46:21.991Z,1.90
2022-09-03T05:51:26.179Z,2.03
2022-09-03T05:56:30.738Z,1.70
2022-09-03T06:01:34.900Z,1.55
2022-09-03T06:06:40.318Z,1.70
2022-09-03T06:11:43.680Z,1.85
2022-09-03T06:16:49.406Z,1.63
2022-09-03T06:21:53.590Z,1.80
2022-09-03T06:26:56.479Z,1.90
2022-09-03T06:31:59.435Z,1.77
2022-09-03T06:37:03.491Z,1.63
2022-09-03T06:42:06.853Z,1.80
2022-09-03T06:47:12.409Z,1.80
2022-09-03T06:52:16.502Z,1.90
2022-09-03T06:57:19.281Z,1.90
2022-09-03T07:02:22.911Z,1.83
2022-09-03T07:07:27.012Z,1.50
2022-09-03T07:12:29.812Z,1.60
2022-09-03T07:17:32.632Z,1.80
2022-09-03T07:22:37.085Z,1.70
2022-09-03T07:27:39.846Z,1.92
2022-09-03T07:32:42.518Z,1.95
2022-09-03T07:37:46.658Z,1.70
2022-09-03T07:42:54.512Z,1.95
2022-09-03T07:47:57.948Z,2.10
2022-09-03T07:53:02.043Z,1.92
2022-09-03T07:58:04.803Z,1.92
2022-09-03T08:03:08.744Z,2.20
2022-09-03T08:08:15.525Z,1.85
2022-09-03T08:13:19.309Z,1.83
2022-09-03T08:18:22.824Z,1.90
2022-09-03T08:23:27.258Z,1.80
2022-09-03T08:28:30.199Z,1.75
2022-09-03T08:33:38.606Z,1.85
2022-09-03T08:38:46.129Z,1.80
2022-09-03T08:44:08.790Z,1.60
2022-09-03T08:49:14.341Z,1.90
2022-09-03T08:54:18.722Z,1.80
2022-09-03T08:59:22.358Z,1.70
2022-09-03T09:04:45.091Z,1.80
2022-09-03T09:09:54.151Z,2.17
2022-09-03T09:15:07.489Z,1.63
2022-09-03T09:20:17.099Z,1.70
2022-09-03T09:25:23.214Z,1.80
2022-09-03T09:30:25.969Z,1.98
2022-09-03T09:35:29.104Z,1.80
2022-09-03T09:40:34.884Z,1.70
2022-09-03T09:45:40.727Z,2.13
2022-09-03T09:50:43.467Z,1.85
2022-09-03T09:55:55.134Z,1.70
2022-09-03T10:01:22.276Z,1.80
2022-09-03T10:06:43.483Z,2.05
2022-09-03T10:11:51.211Z,2.05
2022-09-03T10:16:58.395Z,2.25
2022-09-03T10:22:06.031Z,2.17
2022-09-03T10:27:12.540Z,2.13
2022-09-03T10:32:23.822Z,2.30
2022-09-03T10:37:31.004Z,1.83
2022-09-03T10:42:46.534Z,2.33
2022-09-03T10:48:12.037Z,2.20
2022-09-03T10:53:21.993Z,2.17
2022-09-03T10:58:39.069Z,2.35
2022-09-03T11:03:46.756Z,2.60
2022-09-03T11:08:54.845Z,2.10
2022-09-03T11:14:01.565Z,2.25
2022-09-03T11:19:06.367Z,2.30
2022-09-03T11:24:14.009Z,2.38
2022-09-03T11:29:21.970Z,2.30
2022-09-03T11:34:32.461Z,2.50
2022-09-03T11:39:37.560Z,2.60
2022-09-03T11:44:51.248Z,3.03
2022-09-03T11:50:06.701Z,3.00
2022-09-03T11:55:09.819Z,3.00
2022-09-03T12:00:18.530Z,2.60
2022-09-03T12:05:31.098Z,3.00
2022-09-03T12:10:39.743Z,2.70
2022-09-03T12:15:57.086Z,2.70
2022-09-03T12:21:05.109Z,3.10
2022-09-03T12:26:14.737Z,2.95
2022-09-03T12:31:23.605Z,3.28
2022-09-03T12:36:27.054Z,2.75
2022-09-03T12:41:32.476Z,2.90
2022-09-03T12:46:36.686Z,3.20
2022-09-03T12:51:51.055Z,3.20
2022-09-03T12:56:57.707Z,2.78
2022-09-03T13:02:04.612Z,3.03
2022-09-03T13:07:09.622Z,3.17
2022-09-03T13:12:22.776Z,3.60
2022-09-03T13:17:39.634Z,2.83
2022-09-03T13:22:51.562Z,3.33
2022-09-03T13:28:02.473Z,3.03
2022-09-03T13:33:10.519Z,3.60
2022-09-03T13:38:22.945Z,3.60
2022-09-03T13:43:31.260Z,3.03
2022-09-03T13:48:57.180Z,3.00
2022-09-03T13:54:06.095Z,2.83
2022-09-03T13:59:14.653Z,3.40
2022-09-03T14:04:23.992Z,2.67
2022-09-03T14:09:35.027Z,2.67
2022-09-03T14:14:42.772Z,2.83
2022-09-03T14:19:50.132Z,2.67
2022-09-03T14:24:56.789Z,2.70
2022-09-03T14:30:01.730Z,2.65
2022-09-03T14:35:18.523Z,3.00
2022-09-03T14:40:26.585Z,2.67
2022-09-03T14:45:52.950Z,2.92
2022-09-03T14:51:13.681Z,2.70
2022-09-03T14:56:25.924Z,2.70
2022-09-03T15:01:31.439Z,2.50
2022-09-03T15:06:51.155Z,2.88
2022-09-03T15:11:56.461Z,2.20
2022-09-03T15:17:01.646Z,2.45
2022-09-03T15:22:15.054Z,2.40
2022-09-03T15:27:37.382Z,2.53
2022-09-03T15:33:03.481Z,2.90
2022-09-03T15:38:11.137Z,2.92
2022-09-03T15:43:19.413Z,3.00
2022-09-03T15:48:27.941Z,3.00
2022-09-03T15:53:36.096Z,2.92
2022-09-03T15:58:43.320Z,2.75
2022-09-03T16:04:01.321Z,2.70
2022-09-03T16:09:09.428Z,2.80
2022-09-03T16:14:16.191Z,3.03
2022-09-03T16:19:23.023Z,3.00
2022-09-03T16:24:32.478Z,2.60
2022-09-03T16:29:35.201Z,2.70
2022-09-03T16:34:46.520Z,2.70
2022-09-03T16:39:57.107Z,2.70
2022-09-03T16:45:11.829Z,2.50
2022-09-03T16:50:28.072Z,2.88
2022-09-03T16:55:44.722Z,2.85
2022-09-03T17:00:59.137Z,2.70
2022-09-03T17:06:15.217Z,3.00
2022-09-03T17:11:40.627Z,2.60
2022-09-03T17:16:52.345Z,2.80
2022-09-03T17:22:07.278Z,2.80
2022-09-03T17:27:28.364Z,2.55
2022-09-03T17:32:46.127Z,2.50
2022-09-03T17:37:57.013Z,2.80
2022-09-03T17:43:06.581Z,2.80
2022-09-03T17:48:24.262Z,2.53
2022-09-03T17:53:33.581Z,2.50
2022-09-03T17:58:40.669Z,2.63
2022-09-03T18:03:47.598Z,2.70
2022-09-03T18:08:54.464Z,3.00
2022-09-03T18:14:07.857Z,2.88
2022-09-03T18:19:19.124Z,3.00
2022-09-03T18:24:50.837Z,2.65
2022-09-03T18:30:17.530Z,2.65
2022-09-03T18:35:37.631Z,2.55
2022-09-03T18:41:05.035Z,2.08
2022-09-03T18:52:16.626Z,2.10
2022-09-03T18:57:39.475Z,2.40
2022-09-03T19:03:08.990Z,2.17
2022-09-03T19:08:33.278Z,2.35
2022-09-03T19:13:55.097Z,2.40
2022-09-03T19:19:34.929Z,2.72
2022-09-03T19:24:55.062Z,2.20
2022-09-03T19:30:22.743Z,2.38
2022-09-03T19:35:49.405Z,2.10
2022-09-03T19:41:18.057Z,2.20
2022-09-03T19:46:48.260Z,2.33
2022-09-03T19:52:16.287Z,2.05
2022-09-03T19:57:37.425Z,2.30
2022-09-03T20:02:58.167Z,2.10
2022-09-03T20:08:19.732Z,2.67
2022-09-03T20:13:22.512Z,2.33
2022-09-03T20:18:34.788Z,1.92
2022-09-03T20:23:44.522Z,2.35
2022-09-03T20:29:00.701Z,2.20
2022-09-03T20:34:11.568Z,2.25
2022-09-03T20:39:33.437Z,2.50
2022-09-03T20:44:47.508Z,2.47
2022-09-03T20:49:54.268Z,2.50
2022-09-03T20:55:06.275Z,2.15
2022-09-03T21:00:12.564Z,2.45
2022-09-03T21:05:20.395Z,2.40
2022-09-03T21:10:31.828Z,3.00
2022-09-03T21:15:43.459Z,2.72
2022-09-03T21:20:48.631Z,2.63
2022-09-03T21:26:00.314Z,2.80
2022-09-03T21:31:11.485Z,2.70
2022-09-03T21:36:17.652Z,2.88
2022-09-03T21:41:27.334Z,2.55
2022-09-03T21:46:33.692Z,2.63
2022-09-03T21:51:39.826Z,2.70
2022-09-03T21:57:03.148Z,2.50
2022-09-03T22:02:09.727Z,2.67
2022-09-03T22:07:17.363Z,2.97
2022-09-03T22:12:24.810Z,2.55
2022-09-03T22:17:31.698Z,2.70
2022-09-03T22:22:40.738Z,2.90
2022-09-03T22:27:48.739Z,3.22
2022-09-03T22:32:59.658Z,2.90
2022-09-03T22:38:18.422Z,3.00
2022-09-03T22:43:37.079Z,3.20
2022-09-03T22:49:09.258Z,2.97
2022-09-03T22:54:21.921Z,3.10
2022-09-03T22:59:30.261Z,2.92
2022-09-03T23:04:38.229Z,3.38
2022-09-03T23:09:42.011Z,3.33
2022-09-03T23:14:51.203Z,2.95
2022-09-03T23:19:58.660Z,3.00
2022-09-03T23:25:05.498Z,3.05
2022-09-03T23:30:10.334Z,3.17
2022-09-03T23:35:17.716Z,3.00
2022-09-03T23:40:32.946Z,3.22
2022-09-03T23:45:44.125Z,3.10
2022-09-03T23:50:52.753Z,2.95
2022-09-03T23:56:06.131Z,3.03
